sensor_id;sensor_type;location;lat;lon;timestamp;P1;durP1;ratioP1;P2;durP2;ratioP2
5483;SDS011;2764;48.794;8.326;2023-02-01T00:00:05;4.32;;;3.30;;
5483;SDS011;2764;48.794;8.326;2023-02-01T00:01:07;5.05;;;3.90;;
5483;SDS011;2764;48.794;8.326;2023-02-01T00:02:09;6.55;;;4.35;;
5483;SDS011;2764;48.794;8.326;2023-02-01T00:03:11;4.70;;;4.00;;
5483;SDS011;2764;48.794;8.326;2023-02-01T00:04:14;5.88;;;4.00;;
5483;SDS011;2764;48.794;8.326;2023-02-01T00:05:16;4.40;;;4.05;;
5483;SDS011;2764;48.794;8.326;2023-02-01T00:06:17;6.35;;;3.30;;
5483;SDS011;2764;48.794;8.326;2023-02-01T00:07:19;3.30;;;3.10;;
5483;SDS011;2764;48.794;8.326;2023-02-01T00:08:21;6.05;;;3.63;;
5483;SDS011;2764;48.794;8.326;2023-02-01T00:09:23;3.70;;;3.40;;
5483;SDS011;2764;48.794;8.326;2023-02-01T00:10:25;3.78;;;3.47;;
5483;SDS011;2764;48.794;8.326;2023-02-01T00:11:26;3.33;;;3.10;;
5483;SDS011;2764;48.794;8.326;2023-02-01T00:12:29;3.30;;;3.10;;
5483;SDS011;2764;48.794;8.326;2023-02-01T00:13:32;3.30;;;3.10;;
5483;SDS011;2764;48.794;8.326;2023-02-01T00:14:35;3.90;;;2.95;;
5483;SDS011;2764;48.794;8.326;2023-02-01T00:15:39;3.40;;;3.10;;
5483;SDS011;2764;48.794;8.326;2023-02-01T00:16:41;5.00;;;3.53;;
5483;SDS011;2764;48.794;8.326;2023-02-01T00:17:43;2.88;;;2.67;;
5483;SDS011;2764;48.794;8.326;2023-02-01T00:18:46;4.68;;;2.97;;
5483;SDS011;2764;48.794;8.326;2023-02-01T00:19:50;3.72;;;3.10;;
5483;SDS011;2764;48.794;8.326;2023-02-01T00:20:52;4.30;;;2.78;;
5483;SDS011;2764;48.794;8.326;2023-02-01T00:21:54;2.83;;;2.72;;
5483;SDS011;2764;48.794;8.326;2023-02-01T00:22:55;3.05;;;2.85;;
5483;SDS011;2764;48.794;8.326;2023-02-01T00:23:57;2.80;;;2.67;;
5483;SDS011;2764;48.794;8.326;2023-02-01T00:24:59;3.65;;;3.45;;
5483;SDS011;2764;48.794;8.326;2023-02-01T00:26:02;3.15;;;2.90;;
5483;SDS011;2764;48.794;8.326;2023-02-01T00:27:05;2.60;;;2.50;;
5483;SDS011;2764;48.794;8.326;2023-02-01T00:28:07;2.60;;;2.22;;
5483;SDS011;2764;48.794;8.326;2023-02-01T00:29:11;2.50;;;2.40;;
5483;SDS011;2764;48.794;8.326;2023-02-01T00:30:14;2.45;;;2.35;;
5483;SDS011;2764;48.794;8.326;2023-02-01T00:31:16;2.28;;;2.17;;
5483;SDS011;2764;48.794;8.326;2023-02-01T00:32:18;3.70;;;2.45;;
5483;SDS011;2764;48.794;8.326;2023-02-01T00:33:19;1.90;;;1.80;;
5483;SDS011;2764;48.794;8.326;2023-02-01T00:34:22;2.95;;;2.38;;
5483;SDS011;2764;48.794;8.326;2023-02-01T00:35:24;2.90;;;2.70;;
5483;SDS011;2764;48.794;8.326;2023-02-01T00:36:25;2.10;;;2.00;;
5483;SDS011;2764;48.794;8.326;2023-02-01T00:37:27;2.25;;;2.15;;
5483;SDS011;2764;48.794;8.326;2023-02-01T00:38:29;3.00;;;2.17;;
5483;SDS011;2764;48.794;8.326;2023-02-01T00:39:31;3.30;;;1.92;;
5483;SDS011;2764;48.794;8.326;2023-02-01T00:40:35;2.40;;;1.98;;
5483;SDS011;2764;48.794;8.326;2023-02-01T00:41:37;3.00;;;1.95;;
5483;SDS011;2764;48.794;8.326;2023-02-01T00:42:39;2.33;;;2.08;;
5483;SDS011;2764;48.794;8.326;2023-02-01T00:43:41;2.65;;;2.45;;
5483;SDS011;2764;48.794;8.326;2023-02-01T00:44:43;2.30;;;2.20;;
5483;SDS011;2764;48.794;8.326;2023-02-01T00:45:46;2.00;;;1.90;;
5483;SDS011;2764;48.794;8.326;2023-02-01T00:46:48;1.65;;;1.55;;
5483;SDS011;2764;48.794;8.326;2023-02-01T00:47:50;2.10;;;2.00;;
5483;SDS011;2764;48.794;8.326;2023-02-01T00:48:52;2.08;;;1.92;;
5483;SDS011;2764;48.794;8.326;2023-02-01T00:49:54;2.03;;;1.92;;
5483;SDS011;2764;48.794;8.326;2023-02-01T00:50:59;1.88;;;1.70;;
5483;SDS011;2764;48.794;8.326;2023-02-01T00:52:04;3.53;;;2.10;;
5483;SDS011;2764;48.794;8.326;2023-02-01T00:53:06;1.85;;;1.75;;
5483;SDS011;2764;48.794;8.326;2023-02-01T00:54:08;1.92;;;1.83;;
5483;SDS011;2764;48.794;8.326;2023-02-01T00:55:10;2.05;;;1.95;;
5483;SDS011;2764;48.794;8.326;2023-02-01T00:56:12;2.08;;;1.98;;
5483;SDS011;2764;48.794;8.326;2023-02-01T00:57:15;2.20;;;2.00;;
5483;SDS011;2764;48.794;8.326;2023-02-01T00:58:16;2.00;;;1.90;;
5483;SDS011;2764;48.794;8.326;2023-02-01T00:59:19;2.20;;;2.10;;
5483;SDS011;2764;48.794;8.326;2023-02-01T01:00:23;1.88;;;1.77;;
5483;SDS011;2764;48.794;8.326;2023-02-01T01:01:26;1.85;;;1.77;;
5483;SDS011;2764;48.794;8.326;2023-02-01T01:02:28;2.08;;;1.88;;
5483;SDS011;2764;48.794;8.326;2023-02-01T01:03:30;2.00;;;1.90;;
5483;SDS011;2764;48.794;8.326;2023-02-01T01:04:34;2.30;;;2.20;;
5483;SDS011;2764;48.794;8.326;2023-02-01T01:05:36;1.60;;;1.50;;
5483;SDS011;2764;48.794;8.326;2023-02-01T01:06:37;2.20;;;2.10;;
5483;SDS011;2764;48.794;8.326;2023-02-01T01:07:39;1.88;;;1.75;;
5483;SDS011;2764;48.794;8.326;2023-02-01T01:08:42;2.13;;;1.80;;
5483;SDS011;2764;48.794;8.326;2023-02-01T01:09:44;1.77;;;1.77;;
5483;SDS011;2764;48.794;8.326;2023-02-01T01:10:46;2.65;;;2.22;;
5483;SDS011;2764;48.794;8.326;2023-02-01T01:11:48;1.90;;;1.80;;
5483;SDS011;2764;48.794;8.326;2023-02-01T01:12:52;1.77;;;1.67;;
5483;SDS011;2764;48.794;8.326;2023-02-01T01:13:54;1.92;;;1.83;;
5483;SDS011;2764;48.794;8.326;2023-02-01T01:14:56;2.05;;;1.95;;
5483;SDS011;2764;48.794;8.326;2023-02-01T01:16:01;2.08;;;1.98;;
5483;SDS011;2764;48.794;8.326;2023-02-01T01:17:05;1.67;;;1.60;;
5483;SDS011;2764;48.794;8.326;2023-02-01T01:18:07;1.50;;;1.50;;
5483;SDS011;2764;48.794;8.326;2023-02-01T01:19:09;2.25;;;2.00;;
5483;SDS011;2764;48.794;8.326;2023-02-01T01:20:11;1.55;;;1.55;;
5483;SDS011;2764;48.794;8.326;2023-02-01T01:21:15;3.15;;;2.10;;
5483;SDS011;2764;48.794;8.326;2023-02-01T01:22:18;2.08;;;1.88;;
5483;SDS011;2764;48.794;8.326;2023-02-01T01:23:19;2.70;;;2.50;;
5483;SDS011;2764;48.794;8.326;2023-02-01T01:24:21;2.20;;;2.00;;
5483;SDS011;2764;48.794;8.326;2023-02-01T01:25:23;3.97;;;2.30;;
5483;SDS011;2764;48.794;8.326;2023-02-01T01:26:25;1.85;;;1.80;;
5483;SDS011;2764;48.794;8.326;2023-02-01T01:27:28;2.03;;;1.92;;
5483;SDS011;2764;48.794;8.326;2023-02-01T01:28:30;1.92;;;1.85;;
5483;SDS011;2764;48.794;8.326;2023-02-01T01:29:32;2.15;;;2.05;;
5483;SDS011;2764;48.794;8.326;2023-02-01T01:30:34;2.20;;;2.00;;
5483;SDS011;2764;48.794;8.326;2023-02-01T01:31:36;1.90;;;1.80;;
5483;SDS011;2764;48.794;8.326;2023-02-01T01:32:39;1.90;;;1.90;;
5483;SDS011;2764;48.794;8.326;2023-02-01T01:33:40;2.25;;;2.15;;
5483;SDS011;2764;48.794;8.326;2023-02-01T01:34:42;1.73;;;1.63;;
5483;SDS011;2764;48.794;8.326;2023-02-01T01:35:44;11.43;;;2.30;;
5483;SDS011;2764;48.794;8.326;2023-02-01T01:36:46;2.20;;;2.10;;
5483;SDS011;2764;48.794;8.326;2023-02-01T01:37:47;3.08;;;2.00;;
5483;SDS011;2764;48.794;8.326;2023-02-01T01:38:49;2.03;;;1.92;;
5483;SDS011;2764;48.794;8.326;2023-02-01T01:39:52;1.70;;;1.60;;
5483;SDS011;2764;48.794;8.326;2023-02-01T01:40:54;2.17;;;2.08;;
5483;SDS011;2764;48.794;8.326;2023-02-01T01:41:55;1.88;;;1.77;;
5483;SDS011;2764;48.794;8.326;2023-02-01T01:42:57;5.65;;;2.08;;
5483;SDS011;2764;48.794;8.326;2023-02-01T01:44:01;2.35;;;2.25;;
5483;SDS011;2764;48.794;8.326;2023-02-01T01:45:18;2.50;;;2.30;;
5483;SDS011;2764;48.794;8.326;2023-02-01T01:46:22;2.22;;;2.03;;
5483;SDS011;2764;48.794;8.326;2023-02-01T01:47:37;2.00;;;1.90;;
5483;SDS011;2764;48.794;8.326;2023-02-01T01:48:44;2.20;;;2.10;;
5483;SDS011;2764;48.794;8.326;2023-02-01T01:49:47;2.58;;;2.38;;
5483;SDS011;2764;48.794;8.326;2023-02-01T01:50:54;1.88;;;1.70;;
5483;SDS011;2764;48.794;8.326;2023-02-01T01:52:07;4.03;;;2.30;;
5483;SDS011;2764;48.794;8.326;2023-02-01T01:53:11;2.90;;;2.38;;
5483;SDS011;2764;48.794;8.326;2023-02-01T01:54:50;4.00;;;2.42;;
5483;SDS011;2764;48.794;8.326;2023-02-01T01:55:46;2.53;;;2.22;;
5483;SDS011;2764;48.794;8.326;2023-02-01T01:56:51;2.17;;;2.08;;
5483;SDS011;2764;48.794;8.326;2023-02-01T01:58:01;3.78;;;2.65;;
5483;SDS011;2764;48.794;8.326;2023-02-01T01:59:06;2.20;;;2.10;;
5483;SDS011;2764;48.794;8.326;2023-02-01T02:00:11;2.20;;;2.10;;
5483;SDS011;2764;48.794;8.326;2023-02-01T02:01:15;2.75;;;2.40;;
5483;SDS011;2764;48.794;8.326;2023-02-01T02:02:17;2.72;;;2.53;;
5483;SDS011;2764;48.794;8.326;2023-02-01T02:03:20;3.38;;;3.10;;
5483;SDS011;2764;48.794;8.326;2023-02-01T02:04:25;2.83;;;2.63;;
5483;SDS011;2764;48.794;8.326;2023-02-01T02:05:26;2.30;;;2.10;;
5483;SDS011;2764;48.794;8.326;2023-02-01T02:06:43;2.33;;;2.13;;
5483;SDS011;2764;48.794;8.326;2023-02-01T02:07:52;2.30;;;2.20;;
5483;SDS011;2764;48.794;8.326;2023-02-01T02:08:54;2.92;;;2.25;;
5483;SDS011;2764;48.794;8.326;2023-02-01T02:09:56;3.35;;;2.47;;
5483;SDS011;2764;48.794;8.326;2023-02-01T02:11:01;2.00;;;1.92;;
5483;SDS011;2764;48.794;8.326;2023-02-01T02:12:04;1.90;;;1.80;;
5483;SDS011;2764;48.794;8.326;2023-02-01T02:13:06;1.52;;;1.42;;
5483;SDS011;2764;48.794;8.326;2023-02-01T02:14:09;2.10;;;2.00;;
5483;SDS011;2764;48.794;8.326;2023-02-01T02:15:15;2.10;;;2.00;;
5483;SDS011;2764;48.794;8.326;2023-02-01T02:23:28;1.60;;;1.50;;
5483;SDS011;2764;48.794;8.326;2023-02-01T02:26:06;1.80;;;1.70;;
5483;SDS011;2764;48.794;8.326;2023-02-01T02:27:17;1.70;;;1.60;;
5483;SDS011;2764;48.794;8.326;2023-02-01T02:34:45;3.17;;;2.72;;
5483;SDS011;2764;48.794;8.326;2023-02-01T02:39:03;5.53;;;1.90;;
5483;SDS011;2764;48.794;8.326;2023-02-01T02:41:33;1.58;;;1.48;;
5483;SDS011;2764;48.794;8.326;2023-02-01T02:46:39;1.58;;;1.48;;
5483;SDS011;2764;48.794;8.326;2023-02-01T02:48:14;2.03;;;1.80;;
5483;SDS011;2764;48.794;8.326;2023-02-01T02:49:29;1.40;;;1.30;;
5483;SDS011;2764;48.794;8.326;2023-02-01T02:50:42;1.40;;;1.40;;
5483;SDS011;2764;48.794;8.326;2023-02-01T02:52:12;1.70;;;1.60;;
5483;SDS011;2764;48.794;8.326;2023-02-01T02:53:52;1.65;;;1.55;;
5483;SDS011;2764;48.794;8.326;2023-02-01T02:55:25;1.38;;;1.33;;
5483;SDS011;2764;48.794;8.326;2023-02-01T02:56:29;1.35;;;1.35;;
5483;SDS011;2764;48.794;8.326;2023-02-01T02:57:53;1.20;;;1.10;;
5483;SDS011;2764;48.794;8.326;2023-02-01T02:59:16;2.45;;;2.25;;
5483;SDS011;2764;48.794;8.326;2023-02-01T03:00:39;2.13;;;1.80;;
5483;SDS011;2764;48.794;8.326;2023-02-01T03:02:00;1.95;;;1.80;;
5483;SDS011;2764;48.794;8.326;2023-02-01T03:03:22;1.60;;;1.50;;
5483;SDS011;2764;48.794;8.326;2023-02-01T03:04:42;1.73;;;1.63;;
5483;SDS011;2764;48.794;8.326;2023-02-01T03:05:44;1.88;;;1.77;;
5483;SDS011;2764;48.794;8.326;2023-02-01T03:06:48;1.65;;;1.55;;
5483;SDS011;2764;48.794;8.326;2023-02-01T03:08:56;2.03;;;1.92;;
5483;SDS011;2764;48.794;8.326;2023-02-01T03:09:59;1.83;;;1.83;;
5483;SDS011;2764;48.794;8.326;2023-02-01T03:11:11;1.90;;;1.80;;
5483;SDS011;2764;48.794;8.326;2023-02-01T03:12:15;2.10;;;2.00;;
5483;SDS011;2764;48.794;8.326;2023-02-01T03:14:56;1.67;;;1.67;;
5483;SDS011;2764;48.794;8.326;2023-02-01T03:17:09;1.70;;;1.60;;
5483;SDS011;2764;48.794;8.326;2023-02-01T03:18:32;2.13;;;1.92;;
5483;SDS011;2764;48.794;8.326;2023-02-01T03:19:45;1.60;;;1.50;;
5483;SDS011;2764;48.794;8.326;2023-02-01T03:20:51;1.40;;;1.40;;
5483;SDS011;2764;48.794;8.326;2023-02-01T03:22:59;1.27;;;1.27;;
5483;SDS011;2764;48.794;8.326;2023-02-01T03:24:03;1.50;;;1.42;;
5483;SDS011;2764;48.794;8.326;2023-02-01T03:25:14;1.20;;;1.20;;
5483;SDS011;2764;48.794;8.326;2023-02-01T03:26:24;1.63;;;1.30;;
5483;SDS011;2764;48.794;8.326;2023-02-01T03:27:32;1.23;;;1.13;;
5483;SDS011;2764;48.794;8.326;2023-02-01T03:28:37;1.00;;;1.00;;
5483;SDS011;2764;48.794;8.326;2023-02-01T03:29:55;1.13;;;1.13;;
5483;SDS011;2764;48.794;8.326;2023-02-01T03:31:12;1.42;;;1.35;;
5483;SDS011;2764;48.794;8.326;2023-02-01T03:32:15;1.40;;;1.30;;
5483;SDS011;2764;48.794;8.326;2023-02-01T03:33:18;1.10;;;1.10;;
5483;SDS011;2764;48.794;8.326;2023-02-01T03:34:23;1.25;;;1.25;;
5483;SDS011;2764;48.794;8.326;2023-02-01T03:35:48;1.20;;;1.20;;
5483;SDS011;2764;48.794;8.326;2023-02-01T03:36:58;0.95;;;0.95;;
5483;SDS011;2764;48.794;8.326;2023-02-01T03:38:30;1.38;;;1.30;;
5483;SDS011;2764;48.794;8.326;2023-02-01T03:39:34;1.30;;;1.17;;
5483;SDS011;2764;48.794;8.326;2023-02-01T03:40:40;1.20;;;1.20;;
5483;SDS011;2764;48.794;8.326;2023-02-01T03:41:46;0.98;;;0.98;;
5483;SDS011;2764;48.794;8.326;2023-02-01T03:42:52;1.25;;;1.00;;
5483;SDS011;2764;48.794;8.326;2023-02-01T03:45:28;1.58;;;1.52;;
5483;SDS011;2764;48.794;8.326;2023-02-01T03:46:38;1.42;;;1.33;;
5483;SDS011;2764;48.794;8.326;2023-02-01T03:47:45;1.25;;;1.15;;
5483;SDS011;2764;48.794;8.326;2023-02-01T03:48:50;1.00;;;1.00;;
5483;SDS011;2764;48.794;8.326;2023-02-01T03:50:07;1.00;;;1.00;;
5483;SDS011;2764;48.794;8.326;2023-02-01T03:51:12;1.15;;;0.88;;
5483;SDS011;2764;48.794;8.326;2023-02-01T03:52:20;1.00;;;1.00;;
5483;SDS011;2764;48.794;8.326;2023-02-01T03:53:26;2.25;;;1.20;;
5483;SDS011;2764;48.794;8.326;2023-02-01T03:54:30;0.90;;;0.90;;
5483;SDS011;2764;48.794;8.326;2023-02-01T03:55:33;0.88;;;0.88;;
5483;SDS011;2764;48.794;8.326;2023-02-01T03:56:37;1.17;;;1.17;;
5483;SDS011;2764;48.794;8.326;2023-02-01T03:57:46;1.15;;;1.15;;
5483;SDS011;2764;48.794;8.326;2023-02-01T03:58:54;2.17;;;1.35;;
5483;SDS011;2764;48.794;8.326;2023-02-01T04:00:05;0.60;;;0.60;;
5483;SDS011;2764;48.794;8.326;2023-02-01T04:01:09;1.02;;;1.02;;
5483;SDS011;2764;48.794;8.326;2023-02-01T04:02:10;1.25;;;1.15;;
5483;SDS011;2764;48.794;8.326;2023-02-01T04:03:12;1.80;;;1.00;;
5483;SDS011;2764;48.794;8.326;2023-02-01T04:04:14;1.58;;;1.30;;
5483;SDS011;2764;48.794;8.326;2023-02-01T04:05:21;1.05;;;1.05;;
5483;SDS011;2764;48.794;8.326;2023-02-01T04:06:23;1.13;;;1.08;;
5483;SDS011;2764;48.794;8.326;2023-02-01T04:07:26;0.90;;;0.90;;
5483;SDS011;2764;48.794;8.326;2023-02-01T04:08:28;1.45;;;1.35;;
5483;SDS011;2764;48.794;8.326;2023-02-01T04:09:30;1.35;;;1.20;;
5483;SDS011;2764;48.794;8.326;2023-02-01T04:10:32;0.93;;;0.90;;
5483;SDS011;2764;48.794;8.326;2023-02-01T04:11:34;1.30;;;1.20;;
5483;SDS011;2764;48.794;8.326;2023-02-01T04:12:36;1.17;;;1.15;;
5483;SDS011;2764;48.794;8.326;2023-02-01T04:13:37;1.95;;;0.98;;
5483;SDS011;2764;48.794;8.326;2023-02-01T04:14:39;1.00;;;0.90;;
5483;SDS011;2764;48.794;8.326;2023-02-01T04:15:44;1.27;;;1.08;;
5483;SDS011;2764;48.794;8.326;2023-02-01T04:16:47;1.10;;;1.00;;
5483;SDS011;2764;48.794;8.326;2023-02-01T04:17:49;1.27;;;1.27;;
5483;SDS011;2764;48.794;8.326;2023-02-01T04:18:50;0.98;;;0.98;;
5483;SDS011;2764;48.794;8.326;2023-02-01T04:19:51;1.20;;;1.20;;
5483;SDS011;2764;48.794;8.326;2023-02-01T04:20:55;1.08;;;1.08;;
5483;SDS011;2764;48.794;8.326;2023-02-01T04:21:57;1.40;;;0.95;;
5483;SDS011;2764;48.794;8.326;2023-02-01T04:22:58;1.00;;;1.00;;
5483;SDS011;2764;48.794;8.326;2023-02-01T04:24:00;0.77;;;0.75;;
5483;SDS011;2764;48.794;8.326;2023-02-01T04:25:03;1.20;;;1.20;;
5483;SDS011;2764;48.794;8.326;2023-02-01T04:26:07;1.30;;;1.20;;
5483;SDS011;2764;48.794;8.326;2023-02-01T04:27:09;1.20;;;1.20;;
5483;SDS011;2764;48.794;8.326;2023-02-01T04:28:10;1.33;;;1.33;;
5483;SDS011;2764;48.794;8.326;2023-02-01T04:29:12;1.25;;;1.13;;
5483;SDS011;2764;48.794;8.326;2023-02-01T04:30:14;1.13;;;1.02;;
5483;SDS011;2764;48.794;8.326;2023-02-01T04:31:17;1.00;;;1.00;;
5483;SDS011;2764;48.794;8.326;2023-02-01T04:32:26;1.83;;;1.13;;
5483;SDS011;2764;48.794;8.326;2023-02-01T04:33:28;1.27;;;1.20;;
5483;SDS011;2764;48.794;8.326;2023-02-01T04:34:30;1.50;;;1.40;;
5483;SDS011;2764;48.794;8.326;2023-02-01T04:35:32;1.00;;;1.00;;
5483;SDS011;2764;48.794;8.326;2023-02-01T04:36:33;1.00;;;1.00;;
5483;SDS011;2764;48.794;8.326;2023-02-01T04:37:35;1.30;;;1.15;;
5483;SDS011;2764;48.794;8.326;2023-02-01T04:38:37;1.40;;;1.30;;
5483;SDS011;2764;48.794;8.326;2023-02-01T04:39:39;1.40;;;1.30;;
5483;SDS011;2764;48.794;8.326;2023-02-01T04:40:41;1.95;;;1.10;;
5483;SDS011;2764;48.794;8.326;2023-02-01T04:41:42;1.20;;;1.10;;
5483;SDS011;2764;48.794;8.326;2023-02-01T04:42:44;0.90;;;0.90;;
5483;SDS011;2764;48.794;8.326;2023-02-01T04:43:46;2.30;;;1.48;;
5483;SDS011;2764;48.794;8.326;2023-02-01T04:44:49;1.25;;;0.95;;
5483;SDS011;2764;48.794;8.326;2023-02-01T04:45:51;0.80;;;0.80;;
5483;SDS011;2764;48.794;8.326;2023-02-01T04:46:53;0.95;;;0.95;;
5483;SDS011;2764;48.794;8.326;2023-02-01T04:47:54;0.90;;;0.90;;
5483;SDS011;2764;48.794;8.326;2023-02-01T04:48:56;1.50;;;1.25;;
5483;SDS011;2764;48.794;8.326;2023-02-01T04:49:58;0.90;;;0.90;;
5483;SDS011;2764;48.794;8.326;2023-02-01T04:51:00;1.05;;;0.98;;
5483;SDS011;2764;48.794;8.326;2023-02-01T04:52:02;0.80;;;0.80;;
5483;SDS011;2764;48.794;8.326;2023-02-01T04:53:04;1.20;;;1.20;;
5483;SDS011;2764;48.794;8.326;2023-02-01T04:54:05;1.30;;;1.00;;
5483;SDS011;2764;48.794;8.326;2023-02-01T04:55:08;1.25;;;0.98;;
5483;SDS011;2764;48.794;8.326;2023-02-01T04:56:11;1.17;;;0.85;;
5483;SDS011;2764;48.794;8.326;2023-02-01T04:57:13;1.45;;;1.35;;
5483;SDS011;2764;48.794;8.326;2023-02-01T04:58:16;1.00;;;1.00;;
5483;SDS011;2764;48.794;8.326;2023-02-01T04:59:18;1.35;;;1.00;;
5483;SDS011;2764;48.794;8.326;2023-02-01T05:00:19;1.13;;;0.90;;
5483;SDS011;2764;48.794;8.326;2023-02-01T05:01:22;1.27;;;1.10;;
5483;SDS011;2764;48.794;8.326;2023-02-01T05:02:25;1.00;;;1.00;;
5483;SDS011;2764;48.794;8.326;2023-02-01T05:03:27;2.25;;;1.38;;
5483;SDS011;2764;48.794;8.326;2023-02-01T05:04:29;1.77;;;1.10;;
5483;SDS011;2764;48.794;8.326;2023-02-01T05:05:31;1.00;;;1.00;;
5483;SDS011;2764;48.794;8.326;2023-02-01T05:06:33;1.08;;;1.08;;
5483;SDS011;2764;48.794;8.326;2023-02-01T05:07:35;2.65;;;1.55;;
5483;SDS011;2764;48.794;8.326;2023-02-01T05:08:36;1.00;;;1.00;;
5483;SDS011;2764;48.794;8.326;2023-02-01T05:09:39;1.00;;;1.00;;
5483;SDS011;2764;48.794;8.326;2023-02-01T05:10:40;1.30;;;0.93;;
5483;SDS011;2764;48.794;8.326;2023-02-01T05:11:42;2.47;;;0.95;;
5483;SDS011;2764;48.794;8.326;2023-02-01T05:13:03;1.00;;;1.00;;
5483;SDS011;2764;48.794;8.326;2023-02-01T05:14:24;1.38;;;1.38;;
5483;SDS011;2764;48.794;8.326;2023-02-01T05:15:26;1.40;;;1.30;;
5483;SDS011;2764;48.794;8.326;2023-02-01T05:16:27;1.00;;;1.00;;
5483;SDS011;2764;48.794;8.326;2023-02-01T05:17:29;0.88;;;0.88;;
5483;SDS011;2764;48.794;8.326;2023-02-01T05:18:31;1.23;;;0.90;;
5483;SDS011;2764;48.794;8.326;2023-02-01T05:19:34;1.70;;;1.50;;
5483;SDS011;2764;48.794;8.326;2023-02-01T05:20:35;1.65;;;1.55;;
5483;SDS011;2764;48.794;8.326;2023-02-01T05:21:37;1.80;;;1.50;;
5483;SDS011;2764;48.794;8.326;2023-02-01T05:22:40;1.42;;;1.30;;
5483;SDS011;2764;48.794;8.326;2023-02-01T05:23:42;1.40;;;1.30;;
5483;SDS011;2764;48.794;8.326;2023-02-01T05:25:03;1.25;;;1.25;;
5483;SDS011;2764;48.794;8.326;2023-02-01T05:26:08;1.40;;;1.17;;
5483;SDS011;2764;48.794;8.326;2023-02-01T05:27:10;1.20;;;1.20;;
5483;SDS011;2764;48.794;8.326;2023-02-01T05:28:11;1.10;;;1.10;;
5483;SDS011;2764;48.794;8.326;2023-02-01T05:29:14;2.08;;;1.50;;
5483;SDS011;2764;48.794;8.326;2023-02-01T05:30:16;1.52;;;1.20;;
5483;SDS011;2764;48.794;8.326;2023-02-01T05:31:18;2.55;;;1.67;;
5483;SDS011;2764;48.794;8.326;2023-02-01T05:32:21;1.88;;;1.55;;
5483;SDS011;2764;48.794;8.326;2023-02-01T05:33:23;1.70;;;1.60;;
5483;SDS011;2764;48.794;8.326;2023-02-01T05:34:25;5.65;;;1.80;;
5483;SDS011;2764;48.794;8.326;2023-02-01T05:35:27;1.77;;;1.67;;
5483;SDS011;2764;48.794;8.326;2023-02-01T05:36:30;1.73;;;1.63;;
5483;SDS011;2764;48.794;8.326;2023-02-01T05:37:32;1.77;;;1.67;;
5483;SDS011;2764;48.794;8.326;2023-02-01T05:38:34;2.35;;;2.08;;
5483;SDS011;2764;48.794;8.326;2023-02-01T05:39:36;2.10;;;2.00;;
5483;SDS011;2764;48.794;8.326;2023-02-01T05:40:37;2.15;;;1.95;;
5483;SDS011;2764;48.794;8.326;2023-02-01T05:41:39;2.80;;;2.60;;
5483;SDS011;2764;48.794;8.326;2023-02-01T05:42:41;1.90;;;1.73;;
5483;SDS011;2764;48.794;8.326;2023-02-01T05:43:43;4.28;;;1.90;;
5483;SDS011;2764;48.794;8.326;2023-02-01T05:44:44;2.97;;;2.05;;
5483;SDS011;2764;48.794;8.326;2023-02-01T05:45:46;2.35;;;2.25;;
5483;SDS011;2764;48.794;8.326;2023-02-01T05:46:48;2.88;;;2.67;;
5483;SDS011;2764;48.794;8.326;2023-02-01T05:47:50;2.40;;;2.30;;
5483;SDS011;2764;48.794;8.326;2023-02-01T05:48:52;2.10;;;1.85;;
5483;SDS011;2764;48.794;8.326;2023-02-01T05:49:54;3.00;;;2.55;;
5483;SDS011;2764;48.794;8.326;2023-02-01T05:50:56;2.60;;;2.40;;
5483;SDS011;2764;48.794;8.326;2023-02-01T05:51:58;3.38;;;2.40;;
5483;SDS011;2764;48.794;8.326;2023-02-01T05:53:01;3.53;;;3.33;;
5483;SDS011;2764;48.794;8.326;2023-02-01T05:54:02;6.80;;;2.78;;
5483;SDS011;2764;48.794;8.326;2023-02-01T05:55:05;3.83;;;2.83;;
5483;SDS011;2764;48.794;8.326;2023-02-01T05:56:06;9.57;;;5.45;;
5483;SDS011;2764;48.794;8.326;2023-02-01T05:57:08;3.50;;;3.22;;
5483;SDS011;2764;48.794;8.326;2023-02-01T05:58:10;3.78;;;3.20;;
5483;SDS011;2764;48.794;8.326;2023-02-01T05:59:13;3.10;;;2.50;;
5483;SDS011;2764;48.794;8.326;2023-02-01T06:00:15;3.33;;;3.10;;
5483;SDS011;2764;48.794;8.326;2023-02-01T06:01:17;6.97;;;3.40;;
5483;SDS011;2764;48.794;8.326;2023-02-01T06:02:19;8.82;;;3.67;;
5483;SDS011;2764;48.794;8.326;2023-02-01T06:03:21;5.80;;;2.95;;
5483;SDS011;2764;48.794;8.326;2023-02-01T06:04:23;3.13;;;2.92;;
5483;SDS011;2764;48.794;8.326;2023-02-01T06:05:25;2.80;;;2.70;;
5483;SDS011;2764;48.794;8.326;2023-02-01T06:06:27;4.30;;;2.72;;
5483;SDS011;2764;48.794;8.326;2023-02-01T06:07:28;3.67;;;3.38;;
5483;SDS011;2764;48.794;8.326;2023-02-01T06:08:30;3.72;;;3.40;;
5483;SDS011;2764;48.794;8.326;2023-02-01T06:09:35;5.55;;;3.03;;
5483;SDS011;2764;48.794;8.326;2023-02-01T06:10:37;3.90;;;3.60;;
5483;SDS011;2764;48.794;8.326;2023-02-01T06:11:39;3.58;;;3.38;;
5483;SDS011;2764;48.794;8.326;2023-02-01T06:12:41;8.02;;;3.97;;
5483;SDS011;2764;48.794;8.326;2023-02-01T06:13:46;6.57;;;4.03;;
5483;SDS011;2764;48.794;8.326;2023-02-01T06:14:47;3.38;;;3.17;;
5483;SDS011;2764;48.794;8.326;2023-02-01T06:15:49;5.22;;;4.78;;
5483;SDS011;2764;48.794;8.326;2023-02-01T06:16:51;4.90;;;4.40;;
5483;SDS011;2764;48.794;8.326;2023-02-01T06:17:53;9.70;;;4.50;;
5483;SDS011;2764;48.794;8.326;2023-02-01T06:18:55;5.45;;;4.45;;
5483;SDS011;2764;48.794;8.326;2023-02-01T06:19:57;7.20;;;5.07;;
5483;SDS011;2764;48.794;8.326;2023-02-01T06:20:59;4.70;;;4.05;;
5483;SDS011;2764;48.794;8.326;2023-02-01T06:22:02;3.67;;;3.38;;
5483;SDS011;2764;48.794;8.326;2023-02-01T06:23:07;5.80;;;5.20;;
5483;SDS011;2764;48.794;8.326;2023-02-01T06:24:09;6.95;;;3.40;;
5483;SDS011;2764;48.794;8.326;2023-02-01T06:25:11;4.03;;;3.70;;
5483;SDS011;2764;48.794;8.326;2023-02-01T06:26:13;4.47;;;3.95;;
5483;SDS011;2764;48.794;8.326;2023-02-01T06:27:14;5.18;;;3.92;;
5483;SDS011;2764;48.794;8.326;2023-02-01T06:28:16;3.80;;;3.50;;
5483;SDS011;2764;48.794;8.326;2023-02-01T06:29:18;4.05;;;3.40;;
5483;SDS011;2764;48.794;8.326;2023-02-01T06:30:19;6.68;;;5.10;;
5483;SDS011;2764;48.794;8.326;2023-02-01T06:31:22;8.98;;;4.90;;
5483;SDS011;2764;48.794;8.326;2023-02-01T06:32:24;6.68;;;3.92;;
5483;SDS011;2764;48.794;8.326;2023-02-01T06:33:26;4.22;;;3.90;;
5483;SDS011;2764;48.794;8.326;2023-02-01T06:34:28;4.53;;;3.67;;
5483;SDS011;2764;48.794;8.326;2023-02-01T06:35:29;5.78;;;4.20;;
5483;SDS011;2764;48.794;8.326;2023-02-01T06:36:31;5.30;;;4.15;;
5483;SDS011;2764;48.794;8.326;2023-02-01T06:37:33;4.90;;;3.70;;
5483;SDS011;2764;48.794;8.326;2023-02-01T06:38:35;5.43;;;4.28;;
5483;SDS011;2764;48.794;8.326;2023-02-01T06:39:37;3.70;;;3.40;;
5483;SDS011;2764;48.794;8.326;2023-02-01T06:40:39;3.78;;;3.40;;
5483;SDS011;2764;48.794;8.326;2023-02-01T06:41:51;4.47;;;3.45;;
5483;SDS011;2764;48.794;8.326;2023-02-01T06:42:52;4.50;;;3.85;;
5483;SDS011;2764;48.794;8.326;2023-02-01T06:43:54;4.57;;;3.65;;
5483;SDS011;2764;48.794;8.326;2023-02-01T06:44:56;6.03;;;5.30;;
5483;SDS011;2764;48.794;8.326;2023-02-01T06:46:04;6.88;;;3.90;;
5483;SDS011;2764;48.794;8.326;2023-02-01T06:47:08;4.10;;;3.80;;
5483;SDS011;2764;48.794;8.326;2023-02-01T06:48:10;6.65;;;4.38;;
5483;SDS011;2764;48.794;8.326;2023-02-01T06:49:11;4.50;;;4.10;;
5483;SDS011;2764;48.794;8.326;2023-02-01T06:50:13;5.45;;;4.85;;
5483;SDS011;2764;48.794;8.326;2023-02-01T06:51:19;6.32;;;3.97;;
5483;SDS011;2764;48.794;8.326;2023-02-01T06:52:24;8.02;;;7.00;;
5483;SDS011;2764;48.794;8.326;2023-02-01T06:53:26;4.78;;;4.38;;
5483;SDS011;2764;48.794;8.326;2023-02-01T06:54:28;6.53;;;4.43;;
5483;SDS011;2764;48.794;8.326;2023-02-01T06:55:30;4.40;;;3.63;;
5483;SDS011;2764;48.794;8.326;2023-02-01T06:56:32;5.10;;;4.60;;
5483;SDS011;2764;48.794;8.326;2023-02-01T06:57:34;5.00;;;4.13;;
5483;SDS011;2764;48.794;8.326;2023-02-01T06:58:37;6.07;;;3.10;;
5483;SDS011;2764;48.794;8.326;2023-02-01T06:59:40;4.13;;;3.28;;
5483;SDS011;2764;48.794;8.326;2023-02-01T07:00:41;5.20;;;3.70;;
5483;SDS011;2764;48.794;8.326;2023-02-01T07:01:43;6.68;;;4.35;;
5483;SDS011;2764;48.794;8.326;2023-02-01T07:02:45;4.78;;;4.32;;
5483;SDS011;2764;48.794;8.326;2023-02-01T07:03:47;6.85;;;3.90;;
5483;SDS011;2764;48.794;8.326;2023-02-01T07:04:50;5.80;;;4.40;;
5483;SDS011;2764;48.794;8.326;2023-02-01T07:05:54;5.55;;;4.10;;
5483;SDS011;2764;48.794;8.326;2023-02-01T07:07:01;9.73;;;4.25;;
5483;SDS011;2764;48.794;8.326;2023-02-01T07:08:03;4.15;;;3.67;;
5483;SDS011;2764;48.794;8.326;2023-02-01T07:09:04;4.60;;;3.80;;